Terminal Aerodrome Forecast
Issued by NWS

Home | Current Version | Previous Version | Text Only | Print | Product List | Glossary On
Versions: 1 2 3 4 5 6 7 8 9 10 11 12 13 14 15
329
FTUS44 KEPZ 232053 AAB
TAFLRU
TAF AMD
KLRU 232053Z 2321/2418 25015G25KT P6SM FEW140 SCT250
     FM240500 25018G25KT P6SM VCSH OVC120
     FM241200 25018G25KT P6SM BKN100=

USA.gov is the U.S. government's official web portal to all federal, state and local government web resources and services.